Startpagina
METAR-TAF:

METAR-TAF

Vliegvelden :

Farnborough Airport

Farnborough, Engeland

breedte: 51-17N, lengte: 000-46W, hoogte: 65 m

Actueel weer

Dit bericht is 12 minuten geleden gemaakt, om 16:20 UTC
Wind 9 kt uit het noorden, variërend tussen het westnoordwesten en het noordoosten
Temperatuur 11°C
Vochtigheid 50%
Druk 1006 hPa
Zicht 10 km of meer

METAR: EGLF 061620Z AUTO 36009KT 290V040 9999 FEW049/// 11/01 Q1006

Tijdstip: 17:32 (16:32 UTC)

Verwachting

Dit bericht is 2 uur en het 34 minuten geleden gemaakt, om 13:58 UTC
Verwachting geldig van 06 om 15 UTC tot 06 om 23 UTC
Wind 8 kt uit het westen
Zicht 10 km of meer
Verspreide wolken op 3000 ft
Tijdelijke
van 06 om 15 UTC tot 06 om 18 UTC
Zicht: 7000 m
regenbuien, buien, korrelhagel of korrelsneeuw

TAF: EGLF 061358Z 0615/0623 27008KT 9999 SCT030 TEMPO 0615/0618 7000 SHRA SHGS

Waarnemingen en weersverwachtingen van meer dan 4000 vliegvelden (METAR en TAF).

De beschikbare stations zijn de gele en rode punten op de kaart.

Ga met uw muis naar het station om de naam te zien.

Klik dan om waarnemingen en weersverwachtingen te zien.

kaart wijzigen: klik op de groene knoppen met een zwart kruis om in te zoomen, op de groene knop met een streepje om uit te zoomen of op de groene pijlen voor aangrenzende kaarten.


METAR-TAF: